Latest Coastal Weather Observations for Point Stuart

IDD60701

Issued at 8:05 am CST Wednesday 24 September 2014 (issued every 10 minutes, with the page automatically refreshed every 10 minutes)

About coastal observations | Map of coastal stations | Coastal observations for NT | Marine services | Other Formats
Station Details ID: 014254 Name: POINT STUART Lat: -12.24 Lon: 131.88 Height: 1.0 m
Data from the previous 72 hours. | See also: Recent months for locations in Northern Territory
Date/Time
CST
Temp

°C
Wind Pressure Rain
since 9am
mm
Weather Cloud Vis
km
Sea
Height
m
Swell
Dir
 
Speed
knots
Gust
knots
hPa Trend Height
m
Period
s
Dir
24/08:00am 25.7 NW 4 6 1014.5 - - - - - - - - -
24/07:30am 24.3 NW 5 7 1014.3 - - - - - - - - -
24/07:00am 23.5 NW 4 5 1013.9 - - - - - - - - -
24/06:30am 23.1 NW 4 5 1013.6 - - - - - - - - -
24/06:00am 23.6 CALM 0 0 1013.3 - - - - - - - - -
24/05:30am 24.2 NW 2 4 1013.0 - - - - - - - - -
24/05:00am 24.6 NW 2 4 1012.6 - - - - - - - - -
24/04:30am 24.7 NW 4 6 1012.3 - - - - - - - - -
24/04:00am 25.1 NW 5 6 1012.1 - - - - - - - - -
24/03:30am 25.4 NW 5 8 1012.0 - - - - - - - - -
24/03:00am 25.3 NW 4 6 1012.3 - - - - - - - - -
24/02:30am 25.4 NW 6 9 1012.5 - - - - - - - - -
24/02:00am 25.7 NW 4 6 1012.9 - - - - - - - - -
24/01:30am 25.9 NW 6 8 1013.0 - - - - - - - - -
24/01:00am 25.9 NW 6 9 1013.1 - - - - - - - - -
24/12:30am 26.0 NW 7 12 1013.3 - - - - - - - - -
24/12:00am 26.2 NW 7 11 1013.4 - - - - - - - - -
 
Date/Time
CST
Temp

°C
Wind Pressure Rain
since 9am
mm
Weather Cloud Vis
km
Sea
Height
m
Swell
Dir
 
Speed
knots
Gust
knots
hPa Trend Height
m
Period
s
Dir
23/11:30pm 26.3 NW 9 13 1013.5 - - - - - - - - -
23/11:00pm 26.5 NW 9 14 1013.5 - - - - - - - - -
23/10:30pm 26.9 NW 10 14 1013.3 - - - - - - - - -
23/10:00pm 27.0 NW 8 12 1013.3 - - - - - - - - -
23/09:30pm 27.0 NNW 9 13 1013.1 - - - - - - - - -
23/09:00pm 27.0 NNW 8 13 1012.7 - - - - - - - - -
23/08:30pm 27.1 NW 10 16 1012.3 - - - - - - - - -
23/08:00pm 27.2 NW 10 16 1012.0 - - - - - - - - -
23/07:30pm 27.3 NW 11 15 1011.6 - - - - - - - - -
23/07:00pm 27.2 NW 12 17 1011.4 - - - - - - - - -
23/06:30pm 27.7 WNW 14 19 1011.1 - - - - - - - - -
23/06:00pm 28.6 NW 14 18 1010.8 - - - - - - - - -
23/05:30pm 29.9 NW 9 13 1010.6 - - - - - - - - -
23/05:00pm 29.8 NNW 7 11 1010.5 - - - - - - - - -
23/04:30pm 30.9 N 7 11 1010.4 - - - - - - - - -
23/04:00pm 30.2 NNW 8 12 1010.7 - - - - - - - - -
23/03:30pm 30.6 NNW 7 12 1011.0 - - - - - - - - -
23/03:00pm 30.9 NNW 7 11 1011.3 - - - - - - - - -
23/02:30pm 30.9 NNW 7 14 1011.7 - - - - - - - - -
23/02:00pm 31.2 NNW 7 12 1012.0 - - - - - - - - -
23/01:30pm 30.5 NNW 7 11 1012.4 - - - - - - - - -
23/01:00pm 30.3 N 7 13 1012.9 - - - - - - - - -
23/12:30pm 31.2 N 8 13 1013.3 - - - - - - - - -
23/12:00pm 30.5 N 7 12 1013.7 - - - - - - - - -
23/11:30am 30.0 N 8 15 1013.6 - - - - - - - - -
23/11:00am 30.4 NNW 10 14 1013.8 - - - - - - - - -
23/10:30am 30.7 N 7 11 1014.2 - - - - - - - - -
23/10:00am 29.2 N 7 10 1014.6 - - - - - - - - -
23/09:30am 28.8 N 7 11 1014.7 - - - - - - - - -
23/09:00am 29.0 N 6 11 1014.8 - - - - - - - - -
23/08:30am 28.0 NW 5 7 1014.9 - - - - - - - - -
23/07:30am 24.6 WNW 1 3 1014.2 - - - - - - - - -
23/07:00am 23.3 CALM 0 0 1013.8 - - - - - - - - -
23/06:30am 23.7 WNW 3 4 1013.3 - - - - - - - - -
23/06:00am 23.8 WNW 4 4 1013.1 - - - - - - - - -
23/05:30am 25.0 WNW 3 4 1012.8 - - - - - - - - -
23/05:00am 25.1 CALM 0 0 1012.9 - - - - - - - - -
23/04:30am 24.7 WNW 4 6 1012.5 - - - - - - - - -
23/04:00am 24.9 WNW 5 6 1012.0 - - - - - - - - -
23/03:30am 25.8 WNW 7 8 1012.0 - - - - - - - - -
23/03:00am 26.0 WNW 7 9 1012.1 - - - - - - - - -
23/02:30am 25.9 WNW 8 10 1012.2 - - - - - - - - -
23/02:00am 26.2 WNW 9 11 1012.4 - - - - - - - - -
23/01:30am 26.9 WNW 10 12 1012.6 - - - - - - - - -
23/01:00am 26.3 WNW 9 12 1012.7 - - - - - - - - -
23/12:30am 26.8 W 9 11 1012.8 - - - - - - - - -
23/12:00am 25.7 W 5 6 1012.8 - - - - - - - - -
 
Date/Time
CST
Temp

°C
Wind Pressure Rain
since 9am
mm
Weather Cloud Vis
km
Sea
Height
m
Swell
Dir
 
Speed
knots
Gust
knots
hPa Trend Height
m
Period
s
Dir
22/11:30pm 26.4 W 8 10 1013.1 - - - - - - - - -
22/11:00pm 27.6 WNW 12 15 1013.1 - - - - - - - - -
22/10:30pm 26.6 NNW 7 11 1013.0 - - - - - - - - -
22/10:00pm 26.7 NNW 9 13 1013.1 - - - - - - - - -
22/09:30pm 26.6 NW 8 11 1013.0 - - - - - - - - -
22/09:00pm 26.9 NW 9 11 1012.7 - - - - - - - - -
22/08:30pm 27.3 WNW 11 16 1012.3 - - - - - - - - -
22/08:00pm 27.4 NNW 7 13 1011.9 - - - - - - - - -
22/07:30pm 27.7 N 8 13 1011.4 - - - - - - - - -
22/07:00pm 27.6 NNW 6 8 1011.1 - - - - - - - - -
22/06:30pm 28.2 NNW 7 10 1010.6 - - - - - - - - -
22/06:00pm 29.3 NNW 7 11 1010.3 - - - - - - - - -
22/05:30pm 30.1 NW 8 12 1010.1 - - - - - - - - -
22/05:00pm 31.2 NNW 11 14 1009.9 - - - - - - - - -
22/04:30pm 31.4 NW 10 14 1010.0 - - - - - - - - -
22/04:00pm 31.4 NW 9 13 1010.0 - - - - - - - - -
22/03:30pm 31.2 NW 10 15 1010.0 - - - - - - - - -
22/03:00pm 30.7 NNW 10 15 1010.3 - - - - - - - - -
22/02:30pm 31.2 NNW 9 15 1010.6 - - - - - - - - -
22/02:00pm 31.4 NNW 10 13 1011.2 - - - - - - - - -
22/01:30pm 32.2 N 7 11 1011.8 - - - - - - - - -
22/01:00pm 32.0 NNE 9 13 1012.5 - - - - - - - - -
22/12:30pm 31.8 NNE 9 15 1013.3 - - - - - - - - -
22/12:00pm 31.3 NNE 10 16 1014.0 - - - - - - - - -
22/11:30am 30.4 NE 9 14 1014.5 - - - - - - - - -
22/11:00am 30.1 NE 9 14 1015.1 - - - - - - - - -
22/10:30am 29.1 NE 8 12 1015.5 - - - - - - - - -
22/10:00am 29.5 NE 7 9 1015.8 - - - - - - - - -
22/09:30am 28.5 ENE 7 10 1015.9 - - - - - - - - -
22/09:00am 27.8 E 7 10 1015.9 - - - - - - - - -
22/08:30am 26.3 E 7 8 1015.7 - - - - - - - - -
22/08:00am 24.3 SE 5 6 1015.3 - - - - - - - - -
22/07:30am 22.7 S 6 8 1014.8 - - - - - - - - -
22/07:00am 21.6 WNW 5 7 1014.4 - - - - - - - - -
22/06:30am 21.2 WNW 5 6 1014.0 - - - - - - - - -
22/06:00am 21.2 WNW 4 6 1013.7 - - - - - - - - -
22/05:30am 20.7 WNW 3 5 1013.2 - - - - - - - - -
22/05:00am 20.4 CALM 0 0 1012.7 - - - - - - - - -
22/04:30am 20.8 CALM 0 0 1012.4 - - - - - - - - -
22/04:00am 21.2 CALM 0 0 1012.5 - - - - - - - - -
22/03:30am 21.8 CALM 0 0 1012.3 - - - - - - - - -
22/03:00am 22.0 CALM 0 3 1012.6 - - - - - - - - -
22/02:30am 22.5 CALM 0 2 1012.9 - - - - - - - - -
22/02:00am 23.1 WNW 1 3 1013.2 - - - - - - - - -
22/01:30am 24.2 CALM 0 3 1013.5 - - - - - - - - -
22/01:00am 25.2 N 4 6 1014.0 - - - - - - - - -
22/12:30am 25.1 NW 4 6 1014.2 - - - - - - - - -
22/12:00am 25.3 WNW 4 5 1014.3 - - - - - - - - -
 
Date/Time
CST
Temp

°C
Wind Pressure Rain
since 9am
mm
Weather Cloud Vis
km
Sea
Height
m
Swell
Dir
 
Speed
knots
Gust
knots
hPa Trend Height
m
Period
s
Dir
21/11:30pm 25.7 WNW 5 6 1014.3 - - - - - - - - -
21/11:00pm 26.1 WNW 6 9 1014.3 - - - - - - - - -
21/10:30pm 26.0 NW 9 13 1014.4 - - - - - - - - -
21/10:00pm 26.1 NW 10 13 1014.2 - - - - - - - - -
21/09:30pm 26.2 NNW 7 11 1013.7 - - - - - - - - -
21/09:00pm 26.8 NNW 8 12 1013.3 - - - - - - - - -
21/08:30pm 27.2 NNW 7 13 1012.8 - - - - - - - - -
21/08:00pm 27.2 N 7 12 1012.0 - - - - - - - - -
21/07:30pm 27.3 N 8 15 1011.7 - - - - - - - - -
21/07:00pm 27.6 N 8 13 1011.3 - - - - - - - - -
21/06:30pm 28.1 N 7 12 1011.0 - - - - - - - - -
21/06:00pm 29.3 N 7 11 1010.8 - - - - - - - - -
21/05:30pm 30.2 N 8 14 1010.6 - - - - - - - - -
21/05:00pm 30.5 N 9 14 1010.6 - - - - - - - - -
21/04:30pm 31.0 NNW 8 12 1010.7 - - - - - - - - -
21/04:00pm 31.2 NNW 8 12 1010.7 - - - - - - - - -
21/03:30pm 31.4 NNW 9 12 1010.8 - - - - - - - - -
21/03:00pm 31.6 N 9 15 1011.0 - - - - - - - - -
21/02:30pm 30.8 NNW 11 16 1011.2 - - - - - - - - -
21/02:00pm 31.3 N 8 14 1011.6 - - - - - - - - -
21/01:30pm 31.5 N 8 13 1012.1 - - - - - - - - -
21/01:00pm 31.4 N 6 11 1012.7 - - - - - - - - -
21/12:30pm 31.7 N 8 11 1013.3 - - - - - - - - -
21/12:00pm 31.7 N 6 9 1013.9 - - - - - - - - -
21/11:30am 31.4 NNW 7 11 1014.3 - - - - - - - - -
21/11:00am 30.4 NNW 8 13 1014.8 - - - - - - - - -
21/10:30am 30.7 NNW 7 11 1015.1 - - - - - - - - -
21/10:00am 29.8 NW 6 9 1015.2 - - - - - - - - -
21/09:30am 29.0 SSW 6 9 1015.3 - - - - - - - - -
21/09:00am 27.5 S 6 8 1015.4 - - - - - - - - -
21/08:30am 26.6 NE 6 8 1015.3 - - - - - - - - -

Other Formats:

Comma delimited format used in spreadsheet applications
http://www.bom.gov.au/fwo/IDD60701/IDD60701.94127.axf

JavaScript Object Notation format (JSON) in row-major order
http://www.bom.gov.au/fwo/IDD60701/IDD60701.94127.json